Time;durP1;ratioP1;P1;durP2;ratioP2;P2;SDS_P1;SDS_P2;PMS_P1;PMS_P2;Temp;Humidity;BMP_temperature;BMP_pressure;BME280_temperature;BME280_humidity;BME280_pressure;Samples;Min_cycle;Max_cycle;Signal;HPM_P1;HPM_P2
2023/01/28 00:01:37;;;;;;;1.90;1.80;;;;;;;-2.65;93.63;102452.16;4898843;29;20064;-70
2023/01/28 00:04:03;;;;;;;2.07;1.70;;;;;;;-2.75;93.79;102442.84;4898948;29;20032;-71
2023/01/28 00:06:28;;;;;;;2.83;2.00;;;;;;;-2.78;94.13;102443.78;4916634;29;20071;-70
2023/01/28 00:08:54;;;;;;;2.90;1.80;;;;;;;-2.90;94.38;102425.78;4918635;29;20047;-70
2023/01/28 00:11:23;;;;;;;3.37;2.00;;;;;;;-2.76;94.67;102446.34;4920020;29;20551;-71
2023/01/28 00:13:52;;;;;;;;;;;;;;;-2.59;94.91;102457.25;4921102;29;20060;-70
2023/01/28 00:16:18;;;;;;;3.35;2.25;;;;;;;-2.63;93.97;102456.44;4919452;29;19947;-71
2023/01/28 00:18:44;;;;;;;3.03;2.80;;;;;;;-2.62;93.06;102446.84;4901196;29;20028;-71
2023/01/28 00:21:11;;;;;;;5.33;3.23;;;;;;;-2.59;93.17;102446.81;4916225;29;20480;-71
2023/01/28 00:23:38;;;;;;;2.90;2.70;;;;;;;-2.59;92.61;102438.97;4915803;29;20028;-69
2023/01/28 00:26:13;;;;;;;3.33;2.63;;;;;;;-2.63;92.87;102429.50;4915898;29;20376;-70
2023/01/28 00:28:40;;;;;;;2.78;2.58;;;;;;;-2.75;92.16;102415.00;4915561;29;20023;-69
2023/01/28 00:31:18;;;;;;;3.17;2.70;;;;;;;-2.57;92.38;102431.97;4915750;29;20031;-70
2023/01/28 00:33:44;;;;;;;4.30;3.90;;;;;;;-2.68;92.60;102431.34;4916191;29;20028;-69
2023/01/28 00:36:10;;;;;;;3.78;3.40;;;;;;;-2.76;93.64;102425.47;4916203;29;20260;-70
2023/01/28 00:38:36;;;;;;;3.67;3.38;;;;;;;-2.82;93.95;102431.69;4915996;29;20103;-69
2023/01/28 00:41:09;;;;;;;7.70;3.37;;;;;;;-2.86;93.87;102420.50;4916019;29;20032;-70
2023/01/28 00:43:36;;;;;;;4.97;4.13;;;;;;;-3.12;94.33;102412.41;4915388;29;20064;-69
2023/01/28 00:46:02;;;;;;;4.25;3.42;;;;;;;-3.22;94.17;102406.53;4915343;29;20050;-70
2023/01/28 00:48:28;;;;;;;3.72;3.42;;;;;;;-3.19;94.68;102416.03;4915601;29;20094;-70
2023/01/28 00:50:54;;;;;;;3.20;2.93;;;;;;;-3.21;94.25;102407.41;4915426;29;20032;-71
2023/01/28 00:53:19;;;;;;;3.90;3.30;;;;;;;-3.23;94.54;102407.44;4915683;29;20024;-71
2023/01/28 00:55:44;;;;;;;3.83;3.43;;;;;;;-3.23;93.55;102412.63;4915350;29;20546;-70
2023/01/28 00:58:10;;;;;;;3.50;3.20;;;;;;;-3.47;94.30;102374.09;4898666;29;20024;-70
2023/01/28 01:00:35;;;;;;;3.17;2.97;;;;;;;-3.27;94.51;102397.97;4915303;29;20055;-69
2023/01/28 01:03:01;;;;;;;4.13;3.73;;;;;;;-3.39;94.15;102392.19;4915423;29;20156;-70
2023/01/28 01:05:28;;;;;;;4.23;3.43;;;;;;;-3.36;95.04;102403.41;4898296;29;20035;-69
2023/01/28 01:07:54;;;;;;;5.65;5.00;;;;;;;-3.30;95.08;102387.63;4915344;29;20024;-71
2023/01/28 01:10:19;;;;;;;6.63;5.07;;;;;;;-3.32;94.46;102389.41;4915166;29;20039;-69
2023/01/28 01:12:46;;;;;;;5.73;4.90;;;;;;;-3.31;94.14;102390.25;4915462;29;20028;-71
2023/01/28 01:15:12;;;;;;;6.47;5.25;;;;;;;-3.31;94.44;102405.91;4916724;29;20338;-71
2023/01/28 01:17:44;;;;;;;8.25;6.35;;;;;;;-3.42;94.63;102397.47;4918905;29;20032;-70
2023/01/28 01:20:17;;;;;;;8.80;7.28;;;;;;;-3.50;94.79;102410.63;4918793;29;20495;-69
2023/01/28 01:22:43;;;;;;;6.65;6.05;;;;;;;-3.54;95.60;102407.25;4918574;29;20032;-71
2023/01/28 01:25:08;;;;;;;7.17;5.43;;;;;;;-3.50;95.27;102406.28;4918562;29;20369;-69
2023/01/28 01:27:34;;;;;;;7.10;5.97;;;;;;;-3.47;94.42;102395.81;4918889;29;20028;-70
2023/01/28 01:29:59;;;;;;;7.67;6.23;;;;;;;-3.55;94.40;102392.50;4918928;29;20043;-68
2023/01/28 01:32:33;;;;;;;10.30;7.00;;;;;;;-3.51;93.96;102396.75;4918772;29;20024;-70
2023/01/28 01:34:59;;;;;;;7.30;6.53;;;;;;;-3.58;94.80;102370.88;4918632;29;20031;-70
2023/01/28 01:37:25;;;;;;;8.60;6.83;;;;;;;-3.40;94.23;102386.13;4918067;29;20044;-70
2023/01/28 01:39:51;;;;;;;7.60;6.83;;;;;;;-3.56;94.45;102362.16;4918384;29;20074;-69
2023/01/28 01:42:20;;;;;;;10.70;8.30;;;;;;;-3.40;94.95;102378.31;4918428;29;20032;-69
2023/01/28 01:45:02;;;;;;;9.93;6.85;;;;;;;-3.32;94.20;102388.56;4918639;29;20404;-70
2023/01/28 01:47:42;;;;;;;8.20;7.35;;;;;;;-3.42;94.22;102377.50;4918455;29;20485;-69
2023/01/28 01:50:31;;;;;;;8.52;6.15;;;;;;;-3.48;94.03;102378.44;4918150;29;20461;-70
2023/01/28 01:53:01;;;;;;;;;;;;;;;-3.48;94.79;102373.25;4918795;29;20031;-69
2023/01/28 01:55:33;;;;;;;7.90;7.03;;;;;;;-3.59;94.64;102359.63;4918188;29;20379;-69
2023/01/28 01:58:04;;;;;;;8.80;7.20;;;;;;;-3.63;95.18;102378.81;4917981;29;20496;-70
2023/01/28 02:00:30;;;;;;;9.07;8.00;;;;;;;-3.68;95.41;102353.75;4917858;29;20043;-70
2023/01/28 02:02:57;;;;;;;7.80;7.00;;;;;;;-3.58;95.57;102361.31;4918587;29;20028;-69
2023/01/28 02:05:23;;;;;;;8.60;7.70;;;;;;;-3.71;94.77;102357.28;4918347;29;20059;-70
2023/01/28 02:07:54;;;;;;;8.95;8.05;;;;;;;-3.78;94.32;102350.47;4918084;29;20048;-69
2023/01/28 02:10:20;;;;;;;9.95;7.47;;;;;;;-3.81;94.20;102346.19;4917903;29;20055;-70
2023/01/28 02:12:55;;;;;;;9.40;6.65;;;;;;;-3.83;94.94;102337.56;4917651;29;20451;-69
2023/01/28 02:15:23;;;;;;;8.50;7.65;;;;;;;-3.72;94.27;102355.56;4918081;29;20028;-70
2023/01/28 02:17:49;;;;;;;10.75;8.95;;;;;;;-3.74;94.32;102354.75;4918120;29;20143;-71
2023/01/28 02:20:30;;;;;;;10.95;8.48;;;;;;;-3.80;94.74;102349.66;4917605;29;20032;-70
2023/01/28 02:23:02;;;;;;;9.63;8.63;;;;;;;-3.81;94.77;102348.78;4917690;29;20043;-70
2023/01/28 02:25:46;;;;;;;11.90;9.07;;;;;;;-3.84;95.60;102355.81;4917269;29;20032;-70
2023/01/28 02:28:36;;;;;;;14.18;10.43;;;;;;;-3.88;95.00;102346.34;4917372;29;20384;-69
2023/01/28 02:31:18;;;;;;;10.55;8.65;;;;;;;-3.99;95.57;102341.38;4917465;29;20046;-71
2023/01/28 02:33:58;;;;;;;11.27;8.07;;;;;;;-4.03;95.50;102336.28;4917227;29;20539;-69
2023/01/28 02:36:45;;;;;;;9.80;8.27;;;;;;;-4.04;95.84;102334.56;4917446;29;20024;-70
2023/01/28 02:39:19;;;;;;;8.73;7.68;;;;;;;-4.08;96.72;102329.41;4900659;29;20076;-69
2023/01/28 02:41:52;;;;;;;8.98;8.07;;;;;;;-4.00;96.87;102325.81;4917492;29;20441;-70
2023/01/28 02:44:21;;;;;;;8.13;7.32;;;;;;;-4.06;95.69;102338.03;4900353;29;20473;-70
2023/01/28 02:49:47;;;;;;;11.52;8.63;;;;;;;-3.86;96.43;102344.56;4917411;29;20040;-70
2023/01/28 02:52:19;;;;;;;10.88;8.75;;;;;;;-3.84;96.04;102353.22;4917149;29;20035;-72
2023/01/28 02:55:11;;;;;;;11.32;9.45;;;;;;;-3.83;96.01;102344.50;4917740;29;20083;-69
2023/01/28 02:57:47;;;;;;;9.95;8.95;;;;;;;-3.86;95.48;102339.38;4918688;29;20024;-69
2023/01/28 03:00:31;;;;;;;11.35;8.93;;;;;;;-3.97;95.87;102346.56;4902196;29;20356;-69
2023/01/28 03:03:32;;;;;;;9.93;8.77;;;;;;;-4.01;96.31;102340.56;4917169;29;20027;-69
2023/01/28 03:06:03;;;;;;;9.88;8.82;;;;;;;-3.98;95.98;102331.84;4917295;29;20126;-69
2023/01/28 03:36:49;;;;;;;9.07;8.15;;;;;;;-3.82;94.67;102318.44;4916443;29;20045;-70
2023/01/28 03:39:16;;;;;;;9.52;7.85;;;;;;;-3.82;95.21;102322.78;4916351;29;20047;-70
2023/01/28 03:41:54;;;;;;;12.02;8.95;;;;;;;-3.81;95.47;102317.56;4916625;29;20024;-70
2023/01/28 03:47:07;;;;;;;10.88;7.97;;;;;;;-3.72;95.30;102297.44;4899798;29;20043;-70
2023/01/28 03:49:33;;;;;;;12.00;9.15;;;;;;;-3.72;95.01;102295.69;4916406;29;20028;-71
2023/01/28 03:51:59;;;;;;;10.63;8.93;;;;;;;-3.78;94.53;102301.88;4917811;29;20381;-72
2023/01/28 03:54:24;;;;;;;12.90;9.53;;;;;;;-3.88;94.71;102289.94;4918718;29;20079;-72
2023/01/28 03:56:50;;;;;;;15.20;9.63;;;;;;;-4.08;95.25;102271.28;4919038;29;20115;-71
2023/01/28 03:59:15;;;;;;;13.90;8.97;;;;;;;-4.03;95.98;102289.44;4919104;29;20036;-69
2023/01/28 04:01:41;;;;;;;14.93;9.67;;;;;;;-4.04;96.13;102282.53;4915119;29;20476;-69
2023/01/28 04:04:06;;;;;;;12.83;8.83;;;;;;;-3.93;96.17;102281.38;4916335;29;20376;-70
2023/01/28 04:06:32;;;;;;;10.63;8.80;;;;;;;-3.86;95.58;102271.69;4916091;29;20413;-70
2023/01/28 04:09:00;;;;;;;18.73;11.20;;;;;;;-3.90;95.16;102259.66;4916157;29;20483;-72
2023/01/28 04:11:26;;;;;;;19.50;13.48;;;;;;;-3.90;95.60;102272.66;4915843;29;20063;-71
2023/01/28 04:13:52;;;;;;;16.93;10.70;;;;;;;-4.17;95.84;102241.13;4916279;29;20078;-71
2023/01/28 04:16:19;;;;;;;20.15;10.13;;;;;;;-3.92;95.34;102287.44;4916057;29;20099;-70
2023/01/28 04:18:44;;;;;;;19.15;11.48;;;;;;;-3.93;95.46;102285.75;4916602;29;20036;-70
2023/01/28 04:21:11;;;;;;;20.00;10.50;;;;;;;-3.99;95.62;102270.25;4916259;29;20470;-70
2023/01/28 04:23:37;;;;;;;13.95;10.05;;;;;;;-4.08;95.07;102272.16;4916083;29;20032;-69
2023/01/28 04:26:03;;;;;;;19.90;10.82;;;;;;;-4.09;95.71;102265.22;4915896;29;20059;-69
2023/01/28 04:28:29;;;;;;;21.03;10.93;;;;;;;-4.03;96.29;102271.22;4915981;29;20539;-69
2023/01/28 04:30:54;;;;;;;17.00;10.07;;;;;;;-3.91;96.42;102263.13;4916002;29;20038;-70
2023/01/28 04:33:20;;;;;;;17.10;10.87;;;;;;;-3.94;95.54;102268.41;4899564;29;20032;-71
2023/01/28 04:35:46;;;;;;;16.60;9.53;;;;;;;-3.97;95.35;102269.34;4898961;29;20476;-70
2023/01/28 04:38:13;;;;;;;19.27;9.83;;;;;;;-4.28;94.57;102227.50;4915827;29;20324;-71
2023/01/28 04:40:39;;;;;;;16.90;10.07;;;;;;;-4.05;95.92;102271.22;4898758;29;20043;-70
2023/01/28 04:43:04;;;;;;;15.37;9.03;;;;;;;-4.07;96.40;102273.00;4915611;29;20048;-70
2023/01/28 04:45:35;;;;;;;11.38;8.07;;;;;;;-4.17;96.38;102256.75;4915320;29;20048;-69
2023/01/28 04:48:00;;;;;;;13.05;9.25;;;;;;;-4.13;96.26;102242.78;4915836;29;20036;-69
2023/01/28 04:50:26;;;;;;;11.47;7.40;;;;;;;-4.17;96.38;102268.91;4917817;29;20063;-70
2023/01/28 04:52:51;;;;;;;13.60;7.63;;;;;;;-4.15;96.19;102260.16;4919260;29;20187;-71
2023/01/28 04:55:17;;;;;;;11.10;7.27;;;;;;;-4.10;96.58;102258.31;4919196;29;20118;-70
2023/01/28 04:57:42;;;;;;;12.17;6.80;;;;;;;-4.31;96.55;102214.56;4919516;29;20028;-70
2023/01/28 05:00:08;;;;;;;9.00;7.07;;;;;;;-4.04;96.52;102251.28;4919491;29;20051;-70
2023/01/28 05:02:34;;;;;;;12.18;7.50;;;;;;;-4.03;95.60;102248.66;4919666;29;20650;-69
2023/01/28 05:05:03;;;;;;;12.37;6.30;;;;;;;-4.10;95.26;102244.44;4919198;29;20025;-72
2023/01/28 05:07:29;;;;;;;9.38;6.30;;;;;;;-4.33;95.96;102226.75;4886910;29;20037;-70
2023/01/28 05:09:55;;;;;;;9.90;7.17;;;;;;;-4.33;96.29;102244.09;4919251;29;20028;-71
2023/01/28 05:12:20;;;;;;;8.90;7.17;;;;;;;-4.41;96.34;102236.44;4886330;29;20027;-71
2023/01/28 05:14:46;;;;;;;6.33;5.30;;;;;;;-4.71;96.45;102191.97;4919328;29;20036;-70
2023/01/28 05:17:11;;;;;;;7.70;5.40;;;;;;;-4.58;95.78;102222.94;4902179;29;20047;-72
2023/01/28 05:19:37;;;;;;;7.20;5.90;;;;;;;-4.46;97.00;102235.69;4902136;29;20032;-70
2023/01/28 05:22:02;;;;;;;8.40;6.00;;;;;;;-4.48;96.53;102229.66;4918810;29;20047;-70
2023/01/28 05:24:28;;;;;;;7.07;5.07;;;;;;;-4.54;96.88;102225.44;4919477;29;20032;-71
2023/01/28 05:26:53;;;;;;;10.33;7.00;;;;;;;-4.45;96.45;102219.19;4901912;29;20032;-69
2023/01/28 05:29:19;;;;;;;6.83;6.07;;;;;;;-4.50;96.02;102221.03;4918903;29;20051;-71
2023/01/28 05:31:46;;;;;;;8.80;5.53;;;;;;;-4.71;96.39;102185.91;4918798;29;20032;-71
2023/01/28 05:34:12;;;;;;;8.48;6.05;;;;;;;-4.59;96.24;102221.22;4918388;29;20036;-70
2023/01/28 05:36:39;;;;;;;8.30;6.43;;;;;;;-4.56;96.20;102210.75;4919045;29;20034;-71
2023/01/28 05:39:06;;;;;;;8.05;6.75;;;;;;;-4.53;96.10;102226.28;4918030;29;20354;-70
2023/01/28 05:41:32;;;;;;;7.25;5.70;;;;;;;-4.57;96.58;102214.25;4918332;29;20028;-71
2023/01/28 05:43:58;;;;;;;8.68;6.03;;;;;;;-4.56;96.88;102211.63;4901172;29;20044;-71
2023/01/28 05:46:26;;;;;;;8.10;6.13;;;;;;;-4.37;96.64;102222.47;4917985;29;20389;-69
2023/01/28 05:48:51;;;;;;;6.30;5.53;;;;;;;-4.31;96.38;102206.78;4918204;29;20043;-70
2023/01/28 05:51:17;;;;;;;13.87;5.90;;;;;;;-4.30;95.54;102218.03;4918246;29;20370;-71
2023/01/28 05:53:42;;;;;;;9.47;6.53;;;;;;;-4.43;96.13;102207.88;4917991;29;20024;-70
2023/01/28 05:56:08;;;;;;;8.80;5.50;;;;;;;-4.40;96.64;102218.19;4918527;29;20092;-72
2023/01/28 05:58:33;;;;;;;7.57;6.77;;;;;;;-4.37;97.03;102204.28;4918249;29;20124;-71
2023/01/28 06:00:59;;;;;;;9.57;5.00;;;;;;;-4.36;96.35;102208.59;4917636;29;20445;-70
2023/01/28 06:03:25;;;;;;;7.60;6.37;;;;;;;-4.49;96.67;102225.34;4917972;29;20063;-71
2023/01/28 06:05:50;;;;;;;9.87;7.47;;;;;;;-4.55;96.77;102204.66;4918061;29;20079;-70
2023/01/28 06:08:16;;;;;;;7.53;6.43;;;;;;;-4.45;96.51;102209.63;4918325;29;20491;-71
2023/01/28 06:10:42;;;;;;;6.40;5.80;;;;;;;-4.51;95.97;102219.31;4885440;29;20040;-71
2023/01/28 06:13:07;;;;;;;7.17;5.67;;;;;;;-4.50;97.18;102224.47;4918682;29;20028;-70
2023/01/28 06:15:32;;;;;;;6.10;5.50;;;;;;;-4.55;96.78;102208.13;4919653;29;20028;-71
2023/01/28 06:17:58;;;;;;;6.00;5.33;;;;;;;-4.44;95.76;102223.50;4918203;29;20490;-70
2023/01/28 06:20:24;;;;;;;7.63;5.50;;;;;;;-4.38;95.59;102225.97;4901558;29;20038;-71
2023/01/28 06:22:50;;;;;;;8.00;6.13;;;;;;;-4.43;95.14;102207.00;4900815;29;20044;-72
2023/01/28 06:25:17;;;;;;;6.10;5.30;;;;;;;-4.44;95.29;102210.50;4900915;29;20040;-72
2023/01/28 06:27:42;;;;;;;8.80;6.25;;;;;;;-4.46;95.10;102214.88;4901030;29;20061;-71
2023/01/28 06:30:08;;;;;;;6.43;5.83;;;;;;;-4.48;95.28;102222.72;4917830;29;20024;-71
2023/01/28 06:32:35;;;;;;;7.55;5.18;;;;;;;-4.56;95.28;102198.63;4917312;29;20111;-71
2023/01/28 06:35:00;;;;;;;5.78;5.18;;;;;;;-4.43;95.71;102214.81;4900367;29;20096;-73
2023/01/28 06:37:26;;;;;;;5.87;4.23;;;;;;;-4.51;95.00;102194.16;4917264;29;20111;-71
2023/01/28 06:39:51;;;;;;;5.03;4.63;;;;;;;-4.50;95.62;102216.69;4917626;29;20035;-71
2023/01/28 06:42:18;;;;;;;6.37;5.37;;;;;;;-4.67;95.96;102203.16;4917163;29;20032;-71
2023/01/28 06:44:44;;;;;;;11.82;6.90;;;;;;;-4.75;96.48;102216.31;4917105;29;20032;-70
2023/01/28 06:47:10;;;;;;;7.43;6.03;;;;;;;-4.76;96.59;102214.59;4918350;29;20040;-73
2023/01/28 06:49:39;;;;;;;8.30;5.00;;;;;;;-4.69;96.50;102205.78;4901119;29;20032;-69
2023/01/28 06:52:04;;;;;;;;;;;;;;;-4.58;96.65;102215.13;4885033;29;20308;-72
2023/01/28 06:54:30;;;;;;;6.37;5.50;;;;;;;-4.60;96.76;102215.16;4918448;29;20279;-70
2023/01/28 06:56:55;;;;;;;7.17;5.17;;;;;;;-4.52;96.82;102215.88;4902562;29;20099;-71
2023/01/28 06:59:21;;;;;;;7.20;5.73;;;;;;;-4.54;95.78;102215.03;4917002;29;20034;-74
2023/01/28 07:01:48;;;;;;;6.45;5.55;;;;;;;-4.62;96.19;102216.09;4900021;29;20020;-71
2023/01/28 07:04:13;;;;;;;5.50;5.00;;;;;;;-4.63;97.35;102210.00;4916879;29;20091;-71
2023/01/28 07:06:42;;;;;;;6.53;5.20;;;;;;;-4.75;96.64;102192.91;4916608;29;20044;-72
2023/01/28 07:09:08;;;;;;;6.15;4.93;;;;;;;-4.72;96.75;102192.00;4884080;29;20108;-71
2023/01/28 07:11:33;;;;;;;5.03;4.53;;;;;;;-4.59;97.08;102196.09;4899045;29;20032;-71
2023/01/28 07:13:58;;;;;;;9.27;5.73;;;;;;;-4.44;96.57;102185.34;4916144;29;20094;-73
2023/01/28 07:16:24;;;;;;;6.27;5.27;;;;;;;-4.41;95.61;102182.69;4916579;29;20535;-72
2023/01/28 07:18:50;;;;;;;7.77;5.93;;;;;;;-4.41;94.99;102174.03;4899399;29;20119;-71
2023/01/28 07:21:15;;;;;;;8.03;5.27;;;;;;;-4.43;95.58;102175.81;4916452;29;20028;-72
2023/01/28 07:23:41;;;;;;;6.33;5.53;;;;;;;-4.52;96.27;102165.59;4899833;29;20138;-73
2023/01/28 07:26:07;;;;;;;9.13;5.47;;;;;;;-4.72;96.32;102137.41;4916324;29;20035;-70
2023/01/28 07:28:32;;;;;;;9.90;6.00;;;;;;;-4.50;96.71;102169.88;4899551;29;20035;-71
2023/01/28 07:30:58;;;;;;;5.33;4.83;;;;;;;-4.46;96.08;102171.53;4916387;29;20028;-71
2023/01/28 07:33:23;;;;;;;7.57;5.20;;;;;;;-4.53;95.89;102166.50;4916477;29;20028;-69
2023/01/28 07:35:49;;;;;;;6.33;5.57;;;;;;;-4.59;95.95;102161.44;4916583;29;20099;-68
2023/01/28 07:38:14;;;;;;;6.43;4.93;;;;;;;-4.73;96.40;102141.75;4916911;29;20028;-69
2023/01/28 07:40:41;;;;;;;5.00;4.60;;;;;;;-4.62;96.10;102158.91;4916377;29;20044;-68
2023/01/28 07:43:08;;;;;;;5.25;4.18;;;;;;;-4.57;96.58;102152.72;4899440;29;20044;-68
2023/01/28 07:46:00;;;;;;;6.32;4.32;;;;;;;-4.41;96.13;102163.63;4916228;29;20121;-71
2023/01/28 07:48:26;;;;;;;7.57;4.75;;;;;;;-4.42;94.84;102147.16;4916105;29;20433;-69
2023/01/28 07:50:52;;;;;;;6.80;5.20;;;;;;;-4.37;95.19;102152.25;4916405;29;20047;-71
2023/01/28 07:53:19;;;;;;;7.40;5.73;;;;;;;-4.38;95.81;102145.34;4916239;29;20356;-72
2023/01/28 07:55:45;;;;;;;6.93;5.55;;;;;;;-4.40;95.25;102147.13;4898892;29;20032;-70
2023/01/28 07:58:11;;;;;;;6.18;5.05;;;;;;;-4.64;95.50;102121.66;4915976;29;20056;-71
2023/01/28 08:00:37;;;;;;;7.65;5.30;;;;;;;-4.47;95.09;102135.16;4916544;29;20558;-70
2023/01/28 08:03:11;;;;;;;8.05;5.93;;;;;;;-4.39;95.68;102151.44;4916629;29;20083;-68
2023/01/28 08:05:40;;;;;;;10.32;5.95;;;;;;;-4.50;95.44;102148.22;4918135;29;20088;-69
2023/01/28 08:08:09;;;;;;;10.45;6.47;;;;;;;-4.53;95.55;102151.75;4917043;29;20063;-69
2023/01/28 08:10:38;;;;;;;9.30;6.90;;;;;;;-4.70;95.33;102133.91;4900300;29;20075;-70
2023/01/28 08:13:04;;;;;;;5.72;4.90;;;;;;;-4.56;96.20;102132.75;4915444;29;20091;-71
2023/01/28 08:15:30;;;;;;;6.63;5.63;;;;;;;-4.51;95.57;102116.16;4916373;29;20032;-72
2023/01/28 08:17:57;;;;;;;6.60;5.50;;;;;;;-4.51;94.91;102123.13;4915809;29;20657;-69
2023/01/28 08:20:27;;;;;;;7.30;6.15;;;;;;;-4.62;95.67;102122.50;4915693;29;20040;-69
2023/01/28 08:23:06;;;;;;;7.78;5.05;;;;;;;-4.64;96.36;102119.06;4918283;29;20052;-67
2023/01/28 08:25:32;;;;;;;11.73;6.75;;;;;;;-4.64;95.78;102116.44;4919130;29;20035;-68
2023/01/28 08:28:01;;;;;;;8.85;5.47;;;;;;;-4.58;96.41;102114.59;4919343;29;20044;-71
2023/01/28 08:30:26;;;;;;;7.55;6.00;;;;;;;-4.50;95.66;102101.44;4919988;29;20032;-73
2023/01/28 08:32:57;;;;;;;9.00;5.53;;;;;;;-4.43;95.00;102103.84;4920007;29;20429;-72
2023/01/28 08:35:28;;;;;;;10.25;5.82;;;;;;;-4.44;94.89;102096.94;4903249;29;20032;-71
2023/01/28 08:37:53;;;;;;;6.13;5.15;;;;;;;-4.32;94.95;102092.38;4916994;29;20028;-74
2023/01/28 08:40:21;;;;;;;8.93;5.17;;;;;;;-4.26;94.26;102080.06;4917274;29;20346;-74
2023/01/28 08:42:51;;;;;;;9.77;6.03;;;;;;;-4.27;94.05;102069.69;4916328;29;20489;-73
2023/01/28 08:45:27;;;;;;;6.90;5.05;;;;;;;-4.16;93.93;102076.34;4916678;29;20044;-74
2023/01/28 08:48:07;;;;;;;11.55;5.80;;;;;;;-4.06;93.56;102074.38;4920611;29;20024;-81
2023/01/28 08:50:38;;;;;;;10.50;6.18;;;;;;;-4.03;93.99;102076.06;4907725;29;20040;-73
2023/01/28 08:53:09;;;;;;;7.20;5.60;;;;;;;-3.95;92.96;102071.53;4909880;29;20035;-72
2023/01/28 08:55:38;;;;;;;9.52;5.72;;;;;;;-3.99;92.95;102072.50;4923478;29;20064;-74
2023/01/28 08:58:05;;;;;;;10.70;5.70;;;;;;;-4.10;93.03;102065.78;4920483;29;20024;-74
2023/01/28 09:00:49;;;;;;;5.72;4.53;;;;;;;-4.13;93.47;102060.66;4916847;29;20032;-78
2023/01/28 09:03:39;;;;;;;6.85;5.07;;;;;;;-4.01;92.15;102056.06;4915071;29;20110;-74
2023/01/28 09:06:07;;;;;;;7.17;4.50;;;;;;;-4.04;92.29;102053.53;4917388;29;21517;-75
2023/01/28 09:08:35;;;;;;;7.55;5.30;;;;;;;-4.06;92.85;102051.81;4906640;29;20483;-72
2023/01/28 09:11:01;;;;;;;9.52;4.40;;;;;;;-4.05;92.67;102060.47;4928734;29;20028;-73
2023/01/28 09:13:30;;;;;;;10.77;5.47;;;;;;;-4.10;93.08;102054.53;4917187;29;20028;-72
2023/01/28 09:16:05;;;;;;;6.32;5.18;;;;;;;-4.18;93.49;102041.72;4914880;29;20035;-76
2023/01/28 09:18:30;;;;;;;7.22;4.60;;;;;;;-4.17;92.84;102037.34;4915707;29;20032;-77
2023/01/28 09:20:56;;;;;;;9.13;6.13;;;;;;;-4.04;92.66;102048.34;4916591;29;20478;-75
2023/01/28 09:23:21;;;;;;;6.93;4.27;;;;;;;-4.02;92.15;102050.00;4898755;29;20107;-75
2023/01/28 09:25:47;;;;;;;8.50;4.53;;;;;;;-4.00;92.14;102035.22;4915201;29;20068;-75
2023/01/28 09:28:15;;;;;;;6.27;4.50;;;;;;;-3.95;92.76;102041.16;4915289;29;20464;-79
2023/01/28 09:30:40;;;;;;;18.48;5.82;;;;;;;-3.96;92.50;102034.22;4925623;29;20605;-73
2023/01/28 09:33:07;;;;;;;12.30;4.20;;;;;;;-3.95;92.72;102016.88;4934135;29;20044;-75
2023/01/28 09:35:35;;;;;;;8.25;4.97;;;;;;;-3.86;92.40;102025.28;4934865;29;20036;-73
2023/01/28 09:38:02;;;;;;;5.88;5.13;;;;;;;-3.89;92.71;102027.13;4937956;29;20468;-76
2023/01/28 09:40:39;;;;;;;10.80;5.53;;;;;;;-4.04;92.47;102011.91;4921566;29;20425;-77
2023/01/28 09:43:43;;;;;;;11.65;5.50;;;;;;;-4.02;92.27;102017.94;4939433;29;20147;-74
2023/01/28 09:46:12;;;;;;;11.57;4.82;;;;;;;-3.98;92.65;102017.81;4925933;29;20039;-71
2023/01/28 09:48:43;;;;;;;;;;;;;;;-3.90;92.89;102015.00;4940725;29;20027;-74
2023/01/28 09:51:30;;;;;;;8.90;4.80;;;;;;;-3.91;92.79;102002.88;4939981;29;19914;-75
2023/01/28 09:54:02;;;;;;;6.97;4.93;;;;;;;-3.89;92.94;102001.09;4939168;29;20086;-74
2023/01/28 09:56:33;;;;;;;7.43;4.93;;;;;;;-3.84;93.19;101988.81;4921838;29;20091;-73
2023/01/28 09:59:14;;;;;;;5.95;4.47;;;;;;;-3.72;92.82;101998.06;4938318;29;20032;-74
2023/01/28 10:01:53;;;;;;;5.65;4.05;;;;;;;-3.78;92.21;101973.88;4929308;29;20044;-74
2023/01/28 10:04:49;;;;;;;9.93;4.50;;;;;;;-3.63;92.61;101989.97;4937588;29;20031;-74
2023/01/28 10:07:26;;;;;;;6.60;3.90;;;;;;;-3.63;91.64;101988.22;4937025;29;20636;-73
2023/01/28 10:09:55;;;;;;;6.93;4.78;;;;;;;-3.64;nan;101976.09;4937123;29;20046;-75
2023/01/28 10:12:39;;;;;;;7.13;4.22;;;;;;;-3.61;91.26;101967.34;4936753;29;20063;-75
2023/01/28 10:15:23;;;;;;;4.18;3.78;;;;;;;-3.59;91.39;101974.22;4936941;29;20034;-72
2023/01/28 10:17:51;;;;;;;22.90;4.13;;;;;;;-3.76;90.78;101966.00;4937787;29;20031;-73
2023/01/28 10:20:29;;;;;;;3.78;3.25;;;;;;;-3.94;91.23;101948.31;4937954;29;20067;-72
2023/01/28 10:23:05;;;;;;;5.07;3.88;;;;;;;-3.79;91.40;101960.91;4937212;29;20031;-75
2023/01/28 10:25:31;;;;;;;7.93;3.70;;;;;;;-3.73;91.89;101944.28;4936986;29;20031;-74
2023/01/28 10:28:00;;;;;;;3.85;3.20;;;;;;;-3.60;91.06;101938.66;4936811;29;20031;-77
2023/01/28 10:30:37;;;;;;;5.47;3.22;;;;;;;-3.68;90.43;101924.16;4936841;29;20042;-77
2023/01/28 10:33:11;;;;;;;5.53;3.35;;;;;;;-3.63;90.59;101925.75;4936633;29;20035;-77
2023/01/28 10:35:40;;;;;;;5.13;3.63;;;;;;;-3.58;90.48;101925.59;4936772;29;20564;-73
2023/01/28 10:38:09;;;;;;;3.50;3.13;;;;;;;-3.62;90.09;101917.03;4919557;29;20035;-76
2023/01/28 10:40:38;;;;;;;5.35;3.50;;;;;;;-3.58;89.48;101916.03;4939896;29;20043;-72
2023/01/28 10:43:07;;;;;;;6.05;3.65;;;;;;;-3.47;88.90;101936.56;4940659;29;20107;-76
2023/01/28 10:45:44;;;;;;;4.18;3.78;;;;;;;-3.63;89.30;101920.53;4939367;29;20095;-79
2023/01/28 10:48:20;;;;;;;3.97;3.30;;;;;;;-3.82;90.04;101916.72;4921497;29;20046;-77
2023/01/28 10:50:55;;;;;;;4.03;3.13;;;;;;;-3.89;90.61;101918.66;4940605;29;20062;-76
2023/01/28 10:53:42;;;;;;;7.00;3.88;;;;;;;-3.82;90.68;101914.97;4922128;29;20035;-73
2023/01/28 10:56:27;;;;;;;6.45;3.80;;;;;;;-3.73;90.60;101906.09;4940014;29;20024;-76
2023/01/28 10:59:05;;;;;;;4.22;2.80;;;;;;;-3.60;90.17;101910.03;4940905;29;20032;-79
2023/01/28 11:01:43;;;;;;;10.35;4.40;;;;;;;-3.65;90.10;101911.06;4938313;29;20023;-78
2023/01/28 11:04:22;;;;;;;4.70;3.55;;;;;;;-3.68;89.94;101911.16;4937907;29;20129;-77
2023/01/28 11:06:56;;;;;;;10.20;4.15;;;;;;;-3.73;90.07;101898.28;4938355;29;20114;-76
2023/01/28 11:09:24;;;;;;;6.30;4.18;;;;;;;-3.70;89.80;101892.97;4939511;29;20492;-79
2023/01/28 11:11:50;;;;;;;6.50;4.15;;;;;;;-3.74;90.78;101896.56;4937290;29;20107;-77
2023/01/28 11:14:20;;;;;;;10.30;3.80;;;;;;;-3.73;90.57;101900.88;4938279;29;20118;-76
2023/01/28 11:16:47;;;;;;;3.78;3.28;;;;;;;-3.72;91.40;101892.16;4937814;29;20039;-76
2023/01/28 11:19:12;;;;;;;11.95;4.60;;;;;;;-3.75;90.82;101879.25;4937521;29;20479;-75
2023/01/28 11:21:38;;;;;;;4.03;3.50;;;;;;;-3.78;90.67;101874.09;4936301;29;20047;-78
2023/01/28 11:24:15;;;;;;;6.03;3.97;;;;;;;-3.92;91.27;101855.44;4936687;29;20028;-75
2023/01/28 11:26:51;;;;;;;9.38;3.95;;;;;;;-3.74;91.43;101865.34;4936529;29;20070;-75
2023/01/28 11:29:38;;;;;;;5.00;3.88;;;;;;;-3.74;90.68;101847.09;4903404;29;20036;-74
2023/01/28 11:32:06;;;;;;;4.63;4.18;;;;;;;-3.85;91.33;101839.59;4936848;29;20486;-75
2023/01/28 11:34:33;;;;;;;8.55;4.70;;;;;;;-3.90;91.05;101840.63;4936955;29;20110;-75
2023/01/28 11:37:15;;;;;;;7.13;4.15;;;;;;;-3.92;91.89;101839.81;4938246;29;20024;-76
2023/01/28 11:39:42;;;;;;;5.88;4.20;;;;;;;-4.00;91.72;101828.78;4918496;29;20060;-75
2023/01/28 11:42:16;;;;;;;6.90;4.73;;;;;;;-4.10;91.63;101821.22;4936037;29;20500;-78
2023/01/28 11:44:44;;;;;;;7.85;3.85;;;;;;;-4.06;92.01;101807.22;4935544;29;20063;-73
2023/01/28 11:47:10;;;;;;;8.45;4.60;;;;;;;-3.96;91.73;101817.41;4919428;29;20409;-74
2023/01/28 11:50:22;;;;;;;7.50;4.20;;;;;;;-3.91;92.69;101807.69;4937030;29;20036;-74
2023/01/28 11:53:04;;;;;;;4.57;3.90;;;;;;;-3.95;92.19;101814.75;4936602;29;20063;-75
2023/01/28 11:55:49;;;;;;;8.32;4.57;;;;;;;-4.01;92.28;101798.47;4936802;29;20396;-75
2023/01/28 11:58:41;;;;;;;7.75;4.38;;;;;;;-3.91;92.29;101802.50;4918692;29;20115;-75
2023/01/28 12:01:19;;;;;;;4.97;4.27;;;;;;;-3.85;92.31;101800.56;4930047;29;20036;-74
2023/01/28 12:04:10;;;;;;;7.07;4.40;;;;;;;-3.93;92.35;101783.47;4939701;29;20067;-77
2023/01/28 12:07:00;;;;;;;3.95;3.50;;;;;;;-3.95;93.07;101785.25;4934674;29;20614;-74
2023/01/28 12:09:44;;;;;;;5.97;4.80;;;;;;;-3.98;92.08;101768.00;4935512;29;20468;-76
2023/01/28 12:12:47;;;;;;;9.88;4.45;;;;;;;-3.99;92.73;101770.66;4935227;29;20063;-81